sensor_id;sensor_type;location;lat;lon;timestamp;P1;durP1;ratioP1;P2;durP2;ratioP2
20842;SDS011;26719;51.440;-2.574;2023-04-25T00:02:12;0.23;;;0.23;;
20842;SDS011;26719;51.440;-2.574;2023-04-25T00:04:39;0.17;;;0.17;;
20842;SDS011;26719;51.440;-2.574;2023-04-25T00:07:05;0.13;;;0.13;;
20842;SDS011;26719;51.440;-2.574;2023-04-25T00:09:32;0.20;;;0.20;;
20842;SDS011;26719;51.440;-2.574;2023-04-25T00:11:58;0.20;;;0.20;;
20842;SDS011;26719;51.440;-2.574;2023-04-25T00:14:26;0.20;;;0.20;;
20842;SDS011;26719;51.440;-2.574;2023-04-25T00:16:53;0.20;;;0.20;;
20842;SDS011;26719;51.440;-2.574;2023-04-25T00:19:20;0.20;;;0.20;;
20842;SDS011;26719;51.440;-2.574;2023-04-25T00:21:49;0.20;;;0.20;;
20842;SDS011;26719;51.440;-2.574;2023-04-25T00:24:19;0.20;;;0.20;;
20842;SDS011;26719;51.440;-2.574;2023-04-25T00:26:47;0.27;;;0.27;;
20842;SDS011;26719;51.440;-2.574;2023-04-25T00:29:14;0.27;;;0.27;;
20842;SDS011;26719;51.440;-2.574;2023-04-25T00:31:43;0.20;;;0.20;;
20842;SDS011;26719;51.440;-2.574;2023-04-25T00:34:09;0.13;;;0.13;;
20842;SDS011;26719;51.440;-2.574;2023-04-25T00:36:36;0.30;;;0.30;;
20842;SDS011;26719;51.440;-2.574;2023-04-25T00:39:03;0.30;;;0.30;;
20842;SDS011;26719;51.440;-2.574;2023-04-25T00:41:29;0.20;;;0.20;;
20842;SDS011;26719;51.440;-2.574;2023-04-25T00:43:59;0.20;;;0.20;;
20842;SDS011;26719;51.440;-2.574;2023-04-25T00:46:26;0.20;;;0.20;;
20842;SDS011;26719;51.440;-2.574;2023-04-25T00:48:52;0.10;;;0.10;;
20842;SDS011;26719;51.440;-2.574;2023-04-25T00:51:21;0.20;;;0.20;;
20842;SDS011;26719;51.440;-2.574;2023-04-25T00:53:48;0.20;;;0.20;;
20842;SDS011;26719;51.440;-2.574;2023-04-25T00:56:15;0.20;;;0.20;;
20842;SDS011;26719;51.440;-2.574;2023-04-25T00:58:42;0.20;;;0.20;;
20842;SDS011;26719;51.440;-2.574;2023-04-25T01:01:11;0.20;;;0.20;;
20842;SDS011;26719;51.440;-2.574;2023-04-25T01:03:38;0.10;;;0.10;;
20842;SDS011;26719;51.440;-2.574;2023-04-25T01:06:09;0.10;;;0.10;;
20842;SDS011;26719;51.440;-2.574;2023-04-25T01:08:37;0.20;;;0.20;;
20842;SDS011;26719;51.440;-2.574;2023-04-25T01:11:03;0.20;;;0.20;;
20842;SDS011;26719;51.440;-2.574;2023-04-25T01:13:30;0.20;;;0.20;;
20842;SDS011;26719;51.440;-2.574;2023-04-25T01:15:58;0.10;;;0.10;;
20842;SDS011;26719;51.440;-2.574;2023-04-25T01:18:24;0.20;;;0.20;;
20842;SDS011;26719;51.440;-2.574;2023-04-25T01:20:51;0.10;;;0.10;;
20842;SDS011;26719;51.440;-2.574;2023-04-25T01:23:21;0.20;;;0.20;;
20842;SDS011;26719;51.440;-2.574;2023-04-25T01:25:48;0.23;;;0.23;;
20842;SDS011;26719;51.440;-2.574;2023-04-25T01:28:15;0.30;;;0.30;;
20842;SDS011;26719;51.440;-2.574;2023-04-25T01:30:42;0.20;;;0.20;;
20842;SDS011;26719;51.440;-2.574;2023-04-25T01:33:14;0.10;;;0.10;;
20842;SDS011;26719;51.440;-2.574;2023-04-25T01:35:41;0.10;;;0.10;;
20842;SDS011;26719;51.440;-2.574;2023-04-25T01:38:07;0.10;;;0.10;;
20842;SDS011;26719;51.440;-2.574;2023-04-25T01:40:34;0.23;;;0.23;;
20842;SDS011;26719;51.440;-2.574;2023-04-25T01:43:01;0.20;;;0.20;;
20842;SDS011;26719;51.440;-2.574;2023-04-25T01:45:27;0.20;;;0.20;;
20842;SDS011;26719;51.440;-2.574;2023-04-25T01:47:54;0.30;;;0.30;;
20842;SDS011;26719;51.440;-2.574;2023-04-25T01:50:24;0.10;;;0.10;;
20842;SDS011;26719;51.440;-2.574;2023-04-25T01:52:54;0.30;;;0.30;;
20842;SDS011;26719;51.440;-2.574;2023-04-25T01:55:22;0.20;;;0.20;;
20842;SDS011;26719;51.440;-2.574;2023-04-25T01:57:48;0.30;;;0.30;;
20842;SDS011;26719;51.440;-2.574;2023-04-25T02:00:14;0.20;;;0.20;;
20842;SDS011;26719;51.440;-2.574;2023-04-25T02:02:41;0.30;;;0.30;;
20842;SDS011;26719;51.440;-2.574;2023-04-25T02:05:10;0.20;;;0.20;;
20842;SDS011;26719;51.440;-2.574;2023-04-25T02:07:37;0.30;;;0.30;;
20842;SDS011;26719;51.440;-2.574;2023-04-25T02:10:03;0.20;;;0.20;;
20842;SDS011;26719;51.440;-2.574;2023-04-25T02:12:30;0.20;;;0.20;;
20842;SDS011;26719;51.440;-2.574;2023-04-25T02:14:57;0.10;;;0.10;;
20842;SDS011;26719;51.440;-2.574;2023-04-25T02:17:23;0.10;;;0.10;;
20842;SDS011;26719;51.440;-2.574;2023-04-25T02:19:53;0.20;;;0.20;;
20842;SDS011;26719;51.440;-2.574;2023-04-25T02:22:19;0.20;;;0.20;;
20842;SDS011;26719;51.440;-2.574;2023-04-25T02:24:46;0.20;;;0.20;;
20842;SDS011;26719;51.440;-2.574;2023-04-25T02:27:12;0.20;;;0.20;;
20842;SDS011;26719;51.440;-2.574;2023-04-25T02:29:38;0.20;;;0.20;;
20842;SDS011;26719;51.440;-2.574;2023-04-25T02:32:05;0.20;;;0.20;;
20842;SDS011;26719;51.440;-2.574;2023-04-25T02:34:31;0.20;;;0.20;;
20842;SDS011;26719;51.440;-2.574;2023-04-25T02:36:58;0.30;;;0.30;;
20842;SDS011;26719;51.440;-2.574;2023-04-25T02:39:24;0.30;;;0.30;;
20842;SDS011;26719;51.440;-2.574;2023-04-25T02:41:52;0.20;;;0.20;;
20842;SDS011;26719;51.440;-2.574;2023-04-25T02:44:19;0.20;;;0.20;;
20842;SDS011;26719;51.440;-2.574;2023-04-25T02:46:45;0.10;;;0.10;;
20842;SDS011;26719;51.440;-2.574;2023-04-25T02:49:11;0.20;;;0.20;;
20842;SDS011;26719;51.440;-2.574;2023-04-25T02:51:38;0.20;;;0.20;;
20842;SDS011;26719;51.440;-2.574;2023-04-25T02:54:04;0.20;;;0.20;;
20842;SDS011;26719;51.440;-2.574;2023-04-25T02:56:31;0.30;;;0.30;;
20842;SDS011;26719;51.440;-2.574;2023-04-25T02:58:57;0.20;;;0.20;;
20842;SDS011;26719;51.440;-2.574;2023-04-25T03:01:24;0.10;;;0.10;;
20842;SDS011;26719;51.440;-2.574;2023-04-25T03:03:50;0.17;;;0.17;;
20842;SDS011;26719;51.440;-2.574;2023-04-25T03:06:16;0.20;;;0.20;;
20842;SDS011;26719;51.440;-2.574;2023-04-25T03:08:42;0.20;;;0.20;;
20842;SDS011;26719;51.440;-2.574;2023-04-25T03:11:09;0.27;;;0.27;;
20842;SDS011;26719;51.440;-2.574;2023-04-25T03:13:36;0.20;;;0.20;;
20842;SDS011;26719;51.440;-2.574;2023-04-25T03:16:02;0.20;;;0.20;;
20842;SDS011;26719;51.440;-2.574;2023-04-25T03:18:30;0.20;;;0.20;;
20842;SDS011;26719;51.440;-2.574;2023-04-25T03:20:56;0.20;;;0.20;;
20842;SDS011;26719;51.440;-2.574;2023-04-25T03:23:23;0.10;;;0.10;;
20842;SDS011;26719;51.440;-2.574;2023-04-25T03:25:49;0.20;;;0.20;;
20842;SDS011;26719;51.440;-2.574;2023-04-25T03:28:15;0.20;;;0.20;;
20842;SDS011;26719;51.440;-2.574;2023-04-25T03:30:45;0.20;;;0.20;;
20842;SDS011;26719;51.440;-2.574;2023-04-25T03:33:14;0.20;;;0.20;;
20842;SDS011;26719;51.440;-2.574;2023-04-25T03:35:40;0.20;;;0.20;;
20842;SDS011;26719;51.440;-2.574;2023-04-25T03:38:07;0.30;;;0.30;;
20842;SDS011;26719;51.440;-2.574;2023-04-25T03:40:34;0.13;;;0.13;;
20842;SDS011;26719;51.440;-2.574;2023-04-25T03:43:00;0.30;;;0.30;;
20842;SDS011;26719;51.440;-2.574;2023-04-25T03:45:27;0.30;;;0.30;;
20842;SDS011;26719;51.440;-2.574;2023-04-25T03:47:55;0.10;;;0.10;;
20842;SDS011;26719;51.440;-2.574;2023-04-25T03:50:22;0.20;;;0.20;;
20842;SDS011;26719;51.440;-2.574;2023-04-25T03:52:48;0.27;;;0.27;;
20842;SDS011;26719;51.440;-2.574;2023-04-25T03:55:15;0.30;;;0.30;;
20842;SDS011;26719;51.440;-2.574;2023-04-25T03:57:41;0.37;;;0.37;;
20842;SDS011;26719;51.440;-2.574;2023-04-25T04:00:07;0.20;;;0.20;;
20842;SDS011;26719;51.440;-2.574;2023-04-25T04:02:35;0.37;;;0.37;;
20842;SDS011;26719;51.440;-2.574;2023-04-25T04:05:03;0.27;;;0.27;;
20842;SDS011;26719;51.440;-2.574;2023-04-25T04:07:29;0.37;;;0.37;;
20842;SDS011;26719;51.440;-2.574;2023-04-25T04:09:58;0.30;;;0.30;;
20842;SDS011;26719;51.440;-2.574;2023-04-25T04:12:24;0.30;;;0.30;;
20842;SDS011;26719;51.440;-2.574;2023-04-25T04:14:54;0.30;;;0.30;;
20842;SDS011;26719;51.440;-2.574;2023-04-25T04:17:20;0.30;;;0.30;;
20842;SDS011;26719;51.440;-2.574;2023-04-25T04:19:46;0.30;;;0.30;;
20842;SDS011;26719;51.440;-2.574;2023-04-25T04:22:12;0.20;;;0.20;;
20842;SDS011;26719;51.440;-2.574;2023-04-25T04:24:39;0.17;;;0.17;;
20842;SDS011;26719;51.440;-2.574;2023-04-25T04:27:08;0.27;;;0.27;;
20842;SDS011;26719;51.440;-2.574;2023-04-25T04:29:35;0.30;;;0.30;;
20842;SDS011;26719;51.440;-2.574;2023-04-25T04:32:02;0.20;;;0.20;;
20842;SDS011;26719;51.440;-2.574;2023-04-25T04:34:30;0.30;;;0.30;;
20842;SDS011;26719;51.440;-2.574;2023-04-25T04:36:56;0.20;;;0.20;;
20842;SDS011;26719;51.440;-2.574;2023-04-25T04:39:22;0.33;;;0.33;;
20842;SDS011;26719;51.440;-2.574;2023-04-25T04:41:48;0.20;;;0.20;;
20842;SDS011;26719;51.440;-2.574;2023-04-25T04:44:16;0.30;;;0.30;;
20842;SDS011;26719;51.440;-2.574;2023-04-25T04:46:42;0.30;;;0.30;;
20842;SDS011;26719;51.440;-2.574;2023-04-25T04:49:10;0.20;;;0.20;;
20842;SDS011;26719;51.440;-2.574;2023-04-25T04:51:36;0.30;;;0.30;;
20842;SDS011;26719;51.440;-2.574;2023-04-25T04:54:03;0.20;;;0.20;;
20842;SDS011;26719;51.440;-2.574;2023-04-25T04:56:30;0.20;;;0.20;;
20842;SDS011;26719;51.440;-2.574;2023-04-25T04:58:58;0.27;;;0.27;;
20842;SDS011;26719;51.440;-2.574;2023-04-25T05:01:25;0.20;;;0.20;;
20842;SDS011;26719;51.440;-2.574;2023-04-25T05:03:51;0.30;;;0.30;;
20842;SDS011;26719;51.440;-2.574;2023-04-25T05:06:18;0.23;;;0.23;;
20842;SDS011;26719;51.440;-2.574;2023-04-25T05:08:45;0.30;;;0.30;;
20842;SDS011;26719;51.440;-2.574;2023-04-25T05:11:11;0.20;;;0.20;;
20842;SDS011;26719;51.440;-2.574;2023-04-25T05:13:41;0.40;;;0.40;;
20842;SDS011;26719;51.440;-2.574;2023-04-25T05:16:07;0.40;;;0.40;;
20842;SDS011;26719;51.440;-2.574;2023-04-25T05:18:36;0.30;;;0.30;;
20842;SDS011;26719;51.440;-2.574;2023-04-25T05:21:02;0.20;;;0.20;;
20842;SDS011;26719;51.440;-2.574;2023-04-25T05:23:29;0.30;;;0.30;;
20842;SDS011;26719;51.440;-2.574;2023-04-25T05:25:55;0.30;;;0.30;;
20842;SDS011;26719;51.440;-2.574;2023-04-25T05:28:21;0.30;;;0.30;;
20842;SDS011;26719;51.440;-2.574;2023-04-25T05:30:48;0.33;;;0.33;;
20842;SDS011;26719;51.440;-2.574;2023-04-25T05:33:14;0.30;;;0.30;;
20842;SDS011;26719;51.440;-2.574;2023-04-25T05:35:42;0.17;;;0.17;;
20842;SDS011;26719;51.440;-2.574;2023-04-25T05:38:08;0.30;;;0.30;;
20842;SDS011;26719;51.440;-2.574;2023-04-25T05:40:35;0.30;;;0.30;;
20842;SDS011;26719;51.440;-2.574;2023-04-25T05:43:01;0.20;;;0.20;;
20842;SDS011;26719;51.440;-2.574;2023-04-25T05:45:30;0.30;;;0.30;;
20842;SDS011;26719;51.440;-2.574;2023-04-25T05:47:56;0.33;;;0.33;;
20842;SDS011;26719;51.440;-2.574;2023-04-25T05:50:23;0.40;;;0.40;;
20842;SDS011;26719;51.440;-2.574;2023-04-25T05:52:50;0.40;;;0.40;;
20842;SDS011;26719;51.440;-2.574;2023-04-25T05:55:16;0.30;;;0.30;;
20842;SDS011;26719;51.440;-2.574;2023-04-25T05:57:42;0.30;;;0.30;;
20842;SDS011;26719;51.440;-2.574;2023-04-25T06:00:13;0.30;;;0.30;;
20842;SDS011;26719;51.440;-2.574;2023-04-25T06:02:41;0.30;;;0.30;;
20842;SDS011;26719;51.440;-2.574;2023-04-25T06:05:07;0.30;;;0.30;;
20842;SDS011;26719;51.440;-2.574;2023-04-25T06:07:34;0.30;;;0.30;;
20842;SDS011;26719;51.440;-2.574;2023-04-25T06:10:00;0.30;;;0.30;;
20842;SDS011;26719;51.440;-2.574;2023-04-25T06:12:26;0.30;;;0.30;;
20842;SDS011;26719;51.440;-2.574;2023-04-25T06:14:56;0.30;;;0.30;;
20842;SDS011;26719;51.440;-2.574;2023-04-25T06:17:22;0.23;;;0.23;;
20842;SDS011;26719;51.440;-2.574;2023-04-25T06:19:48;0.23;;;0.23;;
20842;SDS011;26719;51.440;-2.574;2023-04-25T06:22:15;0.33;;;0.33;;
20842;SDS011;26719;51.440;-2.574;2023-04-25T06:24:41;0.20;;;0.20;;
20842;SDS011;26719;51.440;-2.574;2023-04-25T06:27:07;0.27;;;0.27;;
20842;SDS011;26719;51.440;-2.574;2023-04-25T06:29:37;0.30;;;0.30;;
20842;SDS011;26719;51.440;-2.574;2023-04-25T06:32:06;0.30;;;0.30;;
20842;SDS011;26719;51.440;-2.574;2023-04-25T06:34:32;0.20;;;0.20;;
20842;SDS011;26719;51.440;-2.574;2023-04-25T06:37:01;0.20;;;0.20;;
20842;SDS011;26719;51.440;-2.574;2023-04-25T06:39:27;0.30;;;0.30;;
20842;SDS011;26719;51.440;-2.574;2023-04-25T06:41:57;0.20;;;0.20;;
20842;SDS011;26719;51.440;-2.574;2023-04-25T06:44:23;0.40;;;0.40;;
20842;SDS011;26719;51.440;-2.574;2023-04-25T06:46:51;0.30;;;0.30;;
20842;SDS011;26719;51.440;-2.574;2023-04-25T06:49:18;0.30;;;0.30;;
20842;SDS011;26719;51.440;-2.574;2023-04-25T06:51:44;0.30;;;0.30;;
20842;SDS011;26719;51.440;-2.574;2023-04-25T06:54:10;0.20;;;0.20;;
20842;SDS011;26719;51.440;-2.574;2023-04-25T06:56:37;0.30;;;0.30;;
20842;SDS011;26719;51.440;-2.574;2023-04-25T07:01:50;0.23;;;0.23;;
20842;SDS011;26719;51.440;-2.574;2023-04-25T07:04:16;0.30;;;0.30;;
20842;SDS011;26719;51.440;-2.574;2023-04-25T07:06:42;0.30;;;0.30;;
20842;SDS011;26719;51.440;-2.574;2023-04-25T07:09:11;0.20;;;0.20;;
20842;SDS011;26719;51.440;-2.574;2023-04-25T07:11:38;0.20;;;0.20;;
20842;SDS011;26719;51.440;-2.574;2023-04-25T07:14:04;0.20;;;0.20;;
20842;SDS011;26719;51.440;-2.574;2023-04-25T07:16:31;0.20;;;0.20;;
20842;SDS011;26719;51.440;-2.574;2023-04-25T07:18:57;0.30;;;0.30;;
20842;SDS011;26719;51.440;-2.574;2023-04-25T07:21:27;0.30;;;0.30;;
20842;SDS011;26719;51.440;-2.574;2023-04-25T07:23:53;0.30;;;0.30;;
20842;SDS011;26719;51.440;-2.574;2023-04-25T07:26:20;0.27;;;0.27;;
20842;SDS011;26719;51.440;-2.574;2023-04-25T07:28:46;0.20;;;0.20;;
20842;SDS011;26719;51.440;-2.574;2023-04-25T07:31:16;0.20;;;0.20;;
20842;SDS011;26719;51.440;-2.574;2023-04-25T07:33:43;0.30;;;0.30;;
20842;SDS011;26719;51.440;-2.574;2023-04-25T07:36:13;0.20;;;0.20;;
20842;SDS011;26719;51.440;-2.574;2023-04-25T07:38:40;0.30;;;0.30;;
20842;SDS011;26719;51.440;-2.574;2023-04-25T07:41:06;0.13;;;0.13;;
20842;SDS011;26719;51.440;-2.574;2023-04-25T07:43:33;0.20;;;0.20;;
20842;SDS011;26719;51.440;-2.574;2023-04-25T07:45:59;0.20;;;0.20;;
20842;SDS011;26719;51.440;-2.574;2023-04-25T07:48:25;0.30;;;0.30;;
20842;SDS011;26719;51.440;-2.574;2023-04-25T07:50:51;0.20;;;0.20;;
20842;SDS011;26719;51.440;-2.574;2023-04-25T07:53:18;0.20;;;0.20;;
20842;SDS011;26719;51.440;-2.574;2023-04-25T07:55:44;0.20;;;0.20;;
20842;SDS011;26719;51.440;-2.574;2023-04-25T07:58:13;0.20;;;0.20;;
20842;SDS011;26719;51.440;-2.574;2023-04-25T08:00:40;0.10;;;0.10;;
20842;SDS011;26719;51.440;-2.574;2023-04-25T08:03:09;0.30;;;0.30;;
20842;SDS011;26719;51.440;-2.574;2023-04-25T08:05:35;0.20;;;0.20;;
20842;SDS011;26719;51.440;-2.574;2023-04-25T08:08:01;0.13;;;0.13;;
20842;SDS011;26719;51.440;-2.574;2023-04-25T08:10:31;0.20;;;0.20;;
20842;SDS011;26719;51.440;-2.574;2023-04-25T08:12:58;0.30;;;0.30;;
20842;SDS011;26719;51.440;-2.574;2023-04-25T08:15:25;0.20;;;0.20;;
20842;SDS011;26719;51.440;-2.574;2023-04-25T08:17:51;0.30;;;0.30;;
20842;SDS011;26719;51.440;-2.574;2023-04-25T08:20:18;0.20;;;0.20;;
20842;SDS011;26719;51.440;-2.574;2023-04-25T08:22:44;0.30;;;0.30;;
20842;SDS011;26719;51.440;-2.574;2023-04-25T08:25:13;0.30;;;0.30;;
20842;SDS011;26719;51.440;-2.574;2023-04-25T08:27:40;0.30;;;0.30;;
20842;SDS011;26719;51.440;-2.574;2023-04-25T08:30:07;0.30;;;0.30;;
20842;SDS011;26719;51.440;-2.574;2023-04-25T08:32:33;0.30;;;0.30;;
20842;SDS011;26719;51.440;-2.574;2023-04-25T08:35:03;0.20;;;0.20;;
20842;SDS011;26719;51.440;-2.574;2023-04-25T08:37:29;0.30;;;0.30;;
20842;SDS011;26719;51.440;-2.574;2023-04-25T08:39:55;0.10;;;0.10;;
20842;SDS011;26719;51.440;-2.574;2023-04-25T08:42:24;0.20;;;0.20;;
20842;SDS011;26719;51.440;-2.574;2023-04-25T08:44:50;0.20;;;0.20;;
20842;SDS011;26719;51.440;-2.574;2023-04-25T08:47:23;0.20;;;0.20;;
20842;SDS011;26719;51.440;-2.574;2023-04-25T08:49:50;0.30;;;0.30;;
20842;SDS011;26719;51.440;-2.574;2023-04-25T08:52:22;0.20;;;0.20;;
20842;SDS011;26719;51.440;-2.574;2023-04-25T08:54:49;0.30;;;0.30;;
20842;SDS011;26719;51.440;-2.574;2023-04-25T08:57:15;0.30;;;0.30;;
20842;SDS011;26719;51.440;-2.574;2023-04-25T08:59:43;0.30;;;0.30;;
20842;SDS011;26719;51.440;-2.574;2023-04-25T09:02:11;0.40;;;0.40;;
20842;SDS011;26719;51.440;-2.574;2023-04-25T09:04:44;0.30;;;0.30;;
20842;SDS011;26719;51.440;-2.574;2023-04-25T09:07:10;0.23;;;0.23;;
20842;SDS011;26719;51.440;-2.574;2023-04-25T09:09:37;0.40;;;0.40;;
20842;SDS011;26719;51.440;-2.574;2023-04-25T09:12:04;0.30;;;0.30;;
20842;SDS011;26719;51.440;-2.574;2023-04-25T09:14:31;0.40;;;0.40;;
20842;SDS011;26719;51.440;-2.574;2023-04-25T09:19:30;0.37;;;0.37;;
20842;SDS011;26719;51.440;-2.574;2023-04-25T09:21:58;0.40;;;0.40;;
20842;SDS011;26719;51.440;-2.574;2023-04-25T09:24:34;0.30;;;0.30;;
20842;SDS011;26719;51.440;-2.574;2023-04-25T09:27:04;0.40;;;0.40;;
20842;SDS011;26719;51.440;-2.574;2023-04-25T09:29:31;0.40;;;0.40;;
20842;SDS011;26719;51.440;-2.574;2023-04-25T09:32:17;0.50;;;0.50;;
20842;SDS011;26719;51.440;-2.574;2023-04-25T09:34:44;0.37;;;0.37;;
20842;SDS011;26719;51.440;-2.574;2023-04-25T09:37:16;0.30;;;0.30;;
20842;SDS011;26719;51.440;-2.574;2023-04-25T09:39:44;0.40;;;0.40;;
20842;SDS011;26719;51.440;-2.574;2023-04-25T09:42:11;0.30;;;0.30;;
20842;SDS011;26719;51.440;-2.574;2023-04-25T09:44:37;0.30;;;0.30;;
20842;SDS011;26719;51.440;-2.574;2023-04-25T09:47:09;0.33;;;0.33;;
20842;SDS011;26719;51.440;-2.574;2023-04-25T09:49:38;0.40;;;0.40;;
20842;SDS011;26719;51.440;-2.574;2023-04-25T09:52:05;0.40;;;0.40;;
20842;SDS011;26719;51.440;-2.574;2023-04-25T09:54:31;0.40;;;0.40;;
20842;SDS011;26719;51.440;-2.574;2023-04-25T09:56:57;0.30;;;0.30;;
20842;SDS011;26719;51.440;-2.574;2023-04-25T09:59:28;0.40;;;0.40;;
20842;SDS011;26719;51.440;-2.574;2023-04-25T10:01:56;0.50;;;0.50;;
20842;SDS011;26719;51.440;-2.574;2023-04-25T10:04:24;0.30;;;0.30;;
20842;SDS011;26719;51.440;-2.574;2023-04-25T10:06:52;0.40;;;0.40;;
20842;SDS011;26719;51.440;-2.574;2023-04-25T10:09:19;0.50;;;0.50;;
20842;SDS011;26719;51.440;-2.574;2023-04-25T10:11:46;0.40;;;0.40;;
20842;SDS011;26719;51.440;-2.574;2023-04-25T10:14:16;0.30;;;0.30;;
20842;SDS011;26719;51.440;-2.574;2023-04-25T10:16:42;0.43;;;0.43;;
20842;SDS011;26719;51.440;-2.574;2023-04-25T10:19:09;0.30;;;0.30;;
20842;SDS011;26719;51.440;-2.574;2023-04-25T10:21:36;0.40;;;0.40;;
20842;SDS011;26719;51.440;-2.574;2023-04-25T10:24:06;0.40;;;0.40;;
20842;SDS011;26719;51.440;-2.574;2023-04-25T10:26:32;0.40;;;0.40;;
20842;SDS011;26719;51.440;-2.574;2023-04-25T10:28:59;0.40;;;0.40;;
20842;SDS011;26719;51.440;-2.574;2023-04-25T10:31:26;0.50;;;0.50;;
20842;SDS011;26719;51.440;-2.574;2023-04-25T10:33:52;0.50;;;0.50;;
20842;SDS011;26719;51.440;-2.574;2023-04-25T10:36:20;0.40;;;0.40;;
20842;SDS011;26719;51.440;-2.574;2023-04-25T10:38:49;0.40;;;0.40;;
20842;SDS011;26719;51.440;-2.574;2023-04-25T10:41:20;0.40;;;0.40;;
20842;SDS011;26719;51.440;-2.574;2023-04-25T10:43:47;0.40;;;0.40;;
20842;SDS011;26719;51.440;-2.574;2023-04-25T10:48:49;0.30;;;0.30;;
20842;SDS011;26719;51.440;-2.574;2023-04-25T10:51:20;0.30;;;0.30;;
20842;SDS011;26719;51.440;-2.574;2023-04-25T10:53:48;0.23;;;0.23;;
20842;SDS011;26719;51.440;-2.574;2023-04-25T10:58:51;0.20;;;0.20;;
20842;SDS011;26719;51.440;-2.574;2023-04-25T11:01:21;0.20;;;0.20;;
20842;SDS011;26719;51.440;-2.574;2023-04-25T11:03:47;0.20;;;0.20;;
20842;SDS011;26719;51.440;-2.574;2023-04-25T11:06:23;0.40;;;0.40;;
20842;SDS011;26719;51.440;-2.574;2023-04-25T11:08:54;0.20;;;0.20;;
20842;SDS011;26719;51.440;-2.574;2023-04-25T11:11:20;0.30;;;0.30;;
20842;SDS011;26719;51.440;-2.574;2023-04-25T11:13:47;0.27;;;0.27;;
20842;SDS011;26719;51.440;-2.574;2023-04-25T11:16:14;0.30;;;0.30;;
20842;SDS011;26719;51.440;-2.574;2023-04-25T11:18:41;0.30;;;0.30;;
20842;SDS011;26719;51.440;-2.574;2023-04-25T11:21:07;0.40;;;0.40;;
20842;SDS011;26719;51.440;-2.574;2023-04-25T11:23:33;0.40;;;0.40;;
20842;SDS011;26719;51.440;-2.574;2023-04-25T11:26:00;0.40;;;0.40;;
20842;SDS011;26719;51.440;-2.574;2023-04-25T11:28:26;0.30;;;0.30;;
20842;SDS011;26719;51.440;-2.574;2023-04-25T11:30:56;0.30;;;0.30;;
20842;SDS011;26719;51.440;-2.574;2023-04-25T11:33:25;0.27;;;0.27;;
20842;SDS011;26719;51.440;-2.574;2023-04-25T11:35:54;0.30;;;0.30;;
20842;SDS011;26719;51.440;-2.574;2023-04-25T11:38:24;0.30;;;0.30;;
20842;SDS011;26719;51.440;-2.574;2023-04-25T11:40:54;0.40;;;0.40;;
20842;SDS011;26719;51.440;-2.574;2023-04-25T11:43:21;0.33;;;0.33;;
20842;SDS011;26719;51.440;-2.574;2023-04-25T11:45:48;0.30;;;0.30;;
20842;SDS011;26719;51.440;-2.574;2023-04-25T11:48:15;0.40;;;0.40;;
20842;SDS011;26719;51.440;-2.574;2023-04-25T11:50:41;0.40;;;0.40;;
20842;SDS011;26719;51.440;-2.574;2023-04-25T11:53:08;0.40;;;0.40;;
20842;SDS011;26719;51.440;-2.574;2023-04-25T11:55:34;0.33;;;0.33;;
20842;SDS011;26719;51.440;-2.574;2023-04-25T11:58:01;0.40;;;0.40;;
20842;SDS011;26719;51.440;-2.574;2023-04-25T12:00:28;0.40;;;0.40;;
20842;SDS011;26719;51.440;-2.574;2023-04-25T12:02:55;0.50;;;0.50;;
20842;SDS011;26719;51.440;-2.574;2023-04-25T12:05:26;0.40;;;0.40;;
20842;SDS011;26719;51.440;-2.574;2023-04-25T12:07:53;0.37;;;0.37;;
20842;SDS011;26719;51.440;-2.574;2023-04-25T12:10:19;0.37;;;0.37;;
20842;SDS011;26719;51.440;-2.574;2023-04-25T12:12:46;0.30;;;0.30;;
20842;SDS011;26719;51.440;-2.574;2023-04-25T12:15:24;0.40;;;0.40;;
20842;SDS011;26719;51.440;-2.574;2023-04-25T12:17:51;0.40;;;0.40;;
20842;SDS011;26719;51.440;-2.574;2023-04-25T12:20:21;0.40;;;0.40;;
20842;SDS011;26719;51.440;-2.574;2023-04-25T12:22:51;0.43;;;0.43;;
20842;SDS011;26719;51.440;-2.574;2023-04-25T12:28:10;0.37;;;0.37;;
20842;SDS011;26719;51.440;-2.574;2023-04-25T12:33:22;0.30;;;0.30;;
20842;SDS011;26719;51.440;-2.574;2023-04-25T12:35:48;0.40;;;0.40;;
20842;SDS011;26719;51.440;-2.574;2023-04-25T12:38:27;0.30;;;0.30;;
20842;SDS011;26719;51.440;-2.574;2023-04-25T12:40:55;0.30;;;0.30;;
20842;SDS011;26719;51.440;-2.574;2023-04-25T12:43:21;0.40;;;0.40;;
20842;SDS011;26719;51.440;-2.574;2023-04-25T12:45:48;0.40;;;0.40;;
20842;SDS011;26719;51.440;-2.574;2023-04-25T12:48:15;0.40;;;0.40;;
20842;SDS011;26719;51.440;-2.574;2023-04-25T12:50:41;0.30;;;0.30;;
20842;SDS011;26719;51.440;-2.574;2023-04-25T12:53:08;0.40;;;0.40;;
20842;SDS011;26719;51.440;-2.574;2023-04-25T12:55:34;0.30;;;0.30;;
20842;SDS011;26719;51.440;-2.574;2023-04-25T12:58:00;0.30;;;0.30;;
20842;SDS011;26719;51.440;-2.574;2023-04-25T13:00:28;0.30;;;0.30;;
20842;SDS011;26719;51.440;-2.574;2023-04-25T13:02:54;0.50;;;0.50;;
20842;SDS011;26719;51.440;-2.574;2023-04-25T13:05:24;0.50;;;0.50;;
20842;SDS011;26719;51.440;-2.574;2023-04-25T13:07:50;0.57;;;0.57;;
20842;SDS011;26719;51.440;-2.574;2023-04-25T13:10:19;0.40;;;0.40;;
20842;SDS011;26719;51.440;-2.574;2023-04-25T13:12:49;0.50;;;0.50;;
20842;SDS011;26719;51.440;-2.574;2023-04-25T13:15:15;0.47;;;0.47;;
20842;SDS011;26719;51.440;-2.574;2023-04-25T13:17:44;0.53;;;0.53;;
20842;SDS011;26719;51.440;-2.574;2023-04-25T13:20:10;0.53;;;0.53;;
20842;SDS011;26719;51.440;-2.574;2023-04-25T13:22:37;0.60;;;0.60;;
20842;SDS011;26719;51.440;-2.574;2023-04-25T13:25:04;0.50;;;0.50;;
20842;SDS011;26719;51.440;-2.574;2023-04-25T13:27:30;0.40;;;0.40;;
20842;SDS011;26719;51.440;-2.574;2023-04-25T13:29:59;0.40;;;0.40;;
20842;SDS011;26719;51.440;-2.574;2023-04-25T13:32:25;0.40;;;0.40;;
20842;SDS011;26719;51.440;-2.574;2023-04-25T13:34:52;0.53;;;0.53;;
20842;SDS011;26719;51.440;-2.574;2023-04-25T13:37:20;0.40;;;0.40;;
20842;SDS011;26719;51.440;-2.574;2023-04-25T13:39:52;0.40;;;0.40;;
20842;SDS011;26719;51.440;-2.574;2023-04-25T13:42:20;0.30;;;0.30;;
20842;SDS011;26719;51.440;-2.574;2023-04-25T13:44:46;0.50;;;0.50;;
20842;SDS011;26719;51.440;-2.574;2023-04-25T13:47:15;0.50;;;0.50;;
20842;SDS011;26719;51.440;-2.574;2023-04-25T13:49:41;0.40;;;0.40;;
20842;SDS011;26719;51.440;-2.574;2023-04-25T13:52:08;0.60;;;0.60;;
20842;SDS011;26719;51.440;-2.574;2023-04-25T13:54:34;0.60;;;0.60;;
20842;SDS011;26719;51.440;-2.574;2023-04-25T13:57:00;0.57;;;0.57;;
20842;SDS011;26719;51.440;-2.574;2023-04-25T13:59:27;0.50;;;0.50;;
20842;SDS011;26719;51.440;-2.574;2023-04-25T14:01:53;0.40;;;0.40;;
20842;SDS011;26719;51.440;-2.574;2023-04-25T14:04:19;0.70;;;0.70;;
20842;SDS011;26719;51.440;-2.574;2023-04-25T14:06:45;0.40;;;0.40;;
20842;SDS011;26719;51.440;-2.574;2023-04-25T14:09:11;0.50;;;0.50;;
20842;SDS011;26719;51.440;-2.574;2023-04-25T14:11:38;0.60;;;0.60;;
20842;SDS011;26719;51.440;-2.574;2023-04-25T14:14:04;0.50;;;0.50;;
20842;SDS011;26719;51.440;-2.574;2023-04-25T14:16:30;0.40;;;0.40;;
20842;SDS011;26719;51.440;-2.574;2023-04-25T14:19:00;0.30;;;0.30;;
20842;SDS011;26719;51.440;-2.574;2023-04-25T14:21:26;0.40;;;0.40;;
20842;SDS011;26719;51.440;-2.574;2023-04-25T14:23:53;0.63;;;0.63;;
20842;SDS011;26719;51.440;-2.574;2023-04-25T14:26:21;0.60;;;0.60;;
20842;SDS011;26719;51.440;-2.574;2023-04-25T14:28:47;0.50;;;0.50;;
20842;SDS011;26719;51.440;-2.574;2023-04-25T14:31:13;0.50;;;0.50;;
20842;SDS011;26719;51.440;-2.574;2023-04-25T14:33:39;0.40;;;0.40;;
20842;SDS011;26719;51.440;-2.574;2023-04-25T14:36:07;0.50;;;0.50;;
20842;SDS011;26719;51.440;-2.574;2023-04-25T14:38:33;0.40;;;0.40;;
20842;SDS011;26719;51.440;-2.574;2023-04-25T14:41:00;0.70;;;0.70;;
20842;SDS011;26719;51.440;-2.574;2023-04-25T14:43:26;0.50;;;0.50;;
20842;SDS011;26719;51.440;-2.574;2023-04-25T14:45:52;0.53;;;0.53;;
20842;SDS011;26719;51.440;-2.574;2023-04-25T14:48:19;0.50;;;0.50;;
20842;SDS011;26719;51.440;-2.574;2023-04-25T14:50:45;0.43;;;0.43;;